METAR Data
IDs: Format: Raw Decoded Include TAF

Data at: 2234 UTC 02 Aug 2021

KGWB 022215Z AUTO 05003KT 10SM CLR 24/10 A3012 RMK AO2